Aérodrome :
LOGIN :

S'inscrire | Disclaimer

   EN    FR    IT 

 










Légende :    VFR   VFR Marginal   IFR   IFR Intensif   IFR Très Intensif
Visi : 
Plafond : 
>= 8 km
>= 3000ft
5 à 8 km
1000 à 3000 ft
1500m à 5 km
500 à 1000 ft
800 à 1500m
200 à 500 ft
< 800m
< 200 ft
Symboles :   Orages  Brouillard  Fortes neiges  Fortes précipitations  Vent > 20 kt
SIGMETs :   Divers  Orages  Givrage  Turbulence  Onde Orograph.  Cendres Volcan.







- Altitude de l'aérodrome : 510 ft


LJCE - Cerklje

DERNIER METAR :
  • 172300Z AUTO 00000KT 9999 OVC043/// 08/03 Q1010

METARs EXPIRÉS :
  • 172230Z AUTO VRB01KT 9999 OVC039/// 09/03 Q1010
  • 172200Z AUTO VRB03KT 9999 OVC042/// 09/04 Q1010
  • 172130Z AUTO VRB02KT 9999 SCT036/// BKN059/// BKN077/// 09/03 Q1010
  • 172100Z AUTO VRB03KT 9999 BKN043/// BKN063/// 09/03 Q1011
  • 172030Z AUTO 21008KT 170V240 9999 -SHRA OVC037/// 10/04 Q1010

TAF TAF LJCE
Valide du 17 à 21h jusqu'au 18 à 06h UTC


172000Z 1721/1806 22005KT 9999 FEW035 BKN045
TEMPO 1721/1803 -RA
BECMG 1803/1806 09005KT 3500 RA BR BKN020 OVC035
Pas de NOTAMs connus pour ce terrain.



MET'MAP, la Météo Aéronautique d'un coup d'oeil ! - Copyright ORBIFLY Décembre 2007 - Disclaimer

ORBIFLY MET'MAP TEAM :

Programmation & Développement : Alexandra Zaïnal
Conception & Développement : Baudouin d'Aumeries
Co-Programmation & Développement : Marc-Olivier Méhu
Soutien technique & logistique : Manuel Goepfert

Contact : metmap@orbifly.com




SOURCES & CREDITS :

   NOAA